Time;durP1;ratioP1;P1;durP2;ratioP2;P2;SDS_P1;SDS_P2;PMS_P1;PMS_P2;Temp;Humidity;BMP_temperature;BMP_pressure;BME280_temperature;BME280_humidity;BME280_pressure;Samples;Min_cycle;Max_cycle;Signal;HPM_P1;HPM_P2
2021/10/31 00:01:00;;;;;;;2.72;1.33;;;13.30;70.90;;;;;;5094930;28;20058;-73
2021/10/31 00:03:26;;;;;;;1.95;0.60;;;13.30;71.40;;;;;;5094858;28;20028;-74
2021/10/31 00:05:51;;;;;;;1.17;0.30;;;13.30;72.10;;;;;;5094902;28;20021;-72
2021/10/31 00:08:17;;;;;;;0.45;0.40;;;13.50;72.50;;;;;;5076558;28;20016;-72
2021/10/31 00:10:42;;;;;;;0.82;0.43;;;13.80;71.70;;;;;;5094770;28;20024;-72
2021/10/31 00:13:10;;;;;;;0.60;0.60;;;13.90;71.30;;;;;;5075869;28;20060;-72
2021/10/31 00:15:35;;;;;;;3.70;0.40;;;14.10;70.90;;;;;;5094658;28;20035;-72
2021/10/31 00:18:01;;;;;;;0.57;0.40;;;14.30;70.80;;;;;;5094472;28;20032;-73
2021/10/31 00:20:27;;;;;;;2.63;0.40;;;14.50;70.00;;;;;;5094540;28;20026;-72
2021/10/31 00:22:53;;;;;;;0.50;0.30;;;14.50;69.70;;;;;;5094500;28;20111;-75
2021/10/31 00:25:18;;;;;;;0.35;0.32;;;14.60;69.80;;;;;;5094512;28;20083;-73
2021/10/31 00:27:44;;;;;;;0.20;0.20;;;14.60;69.50;;;;;;5094511;28;20146;-72
2021/10/31 00:30:10;;;;;;;0.43;0.40;;;14.60;69.20;;;;;;5076347;28;20361;-72
2021/10/31 00:32:35;;;;;;;0.25;0.25;;;14.70;68.90;;;;;;5094444;28;20063;-72
2021/10/31 00:35:02;;;;;;;1.05;0.40;;;14.60;68.70;;;;;;5094348;28;20059;-72
2021/10/31 00:37:27;;;;;;;1.13;0.55;;;14.70;68.70;;;;;;5094147;28;20066;-72
2021/10/31 00:39:53;;;;;;;0.25;0.25;;;14.60;68.80;;;;;;5099529;28;20048;-73
2021/10/31 00:42:19;;;;;;;0.70;0.52;;;14.60;69.00;;;;;;5112222;28;20099;-72
2021/10/31 00:44:45;;;;;;;0.60;0.55;;;14.50;68.70;;;;;;5110512;28;20024;-73
2021/10/31 00:47:10;;;;;;;0.77;0.50;;;14.30;68.30;;;;;;5104605;28;20020;-73
2021/10/31 00:49:36;;;;;;;0.88;0.60;;;14.20;68.40;;;;;;5094271;28;20430;-73
2021/10/31 00:52:03;;;;;;;0.75;0.70;;;14.10;68.60;;;;;;5094017;28;20464;-72
2021/10/31 00:54:29;;;;;;;0.90;0.82;;;13.90;68.90;;;;;;5094025;28;20017;-72
2021/10/31 00:56:55;;;;;;;0.68;0.55;;;13.80;69.20;;;;;;5093873;28;20043;-73
2021/10/31 00:59:21;;;;;;;2.80;1.20;;;13.70;69.60;;;;;;5093823;28;20036;-73
2021/10/31 01:01:49;;;;;;;1.15;0.65;;;13.60;70.00;;;;;;5093954;28;20020;-71
2021/10/31 01:04:19;;;;;;;0.85;0.80;;;13.50;70.40;;;;;;5093796;28;20476;-72
2021/10/31 01:07:03;;;;;;;1.17;0.95;;;13.50;70.80;;;;;;5093848;28;20549;-74
2021/10/31 01:09:46;;;;;;;1.52;0.70;;;13.40;71.20;;;;;;5093578;28;20069;-78
2021/10/31 01:12:22;;;;;;;1.60;0.70;;;13.30;71.70;;;;;;5093669;28;20481;-77
2021/10/31 01:15:21;;;;;;;0.73;0.60;;;13.20;72.20;;;;;;5093689;28;20020;-76
2021/10/31 01:18:10;;;;;;;0.88;0.50;;;13.20;72.90;;;;;;5093508;28;20434;-76
2021/10/31 01:20:52;;;;;;;1.75;0.82;;;13.20;73.40;;;;;;5093620;28;20465;-76
2021/10/31 01:23:36;;;;;;;2.63;1.00;;;13.30;73.90;;;;;;5093612;28;20452;-76
2021/10/31 01:26:25;;;;;;;1.45;0.60;;;13.40;74.00;;;;;;5092725;28;20032;-76
2021/10/31 01:29:12;;;;;;;1.10;0.65;;;13.50;73.90;;;;;;5093536;28;20077;-77
2021/10/31 01:31:54;;;;;;;0.57;0.50;;;13.50;74.00;;;;;;5093585;28;20077;-76
2021/10/31 01:35:12;;;;;;;1.05;0.60;;;13.60;73.90;;;;;;5093472;28;20472;-76
2021/10/31 01:37:46;;;;;;;0.73;0.47;;;13.80;74.00;;;;;;5070651;28;20253;-76
2021/10/31 01:40:30;;;;;;;1.45;0.70;;;13.80;73.70;;;;;;5093081;28;20040;-76
2021/10/31 01:43:05;;;;;;;1.00;0.77;;;13.90;73.70;;;;;;5093218;28;20053;-76
2021/10/31 01:45:48;;;;;;;2.35;0.70;;;13.90;74.10;;;;;;5093230;28;20031;-77
2021/10/31 01:48:19;;;;;;;0.68;0.68;;;13.90;74.20;;;;;;5093003;28;20075;-75
2021/10/31 01:50:54;;;;;;;0.57;0.50;;;13.80;74.10;;;;;;5093070;28;20333;-76
2021/10/31 01:53:37;;;;;;;0.40;0.40;;;13.90;73.50;;;;;;5093084;28;20024;-76
2021/10/31 01:56:12;;;;;;;0.50;0.38;;;14.10;72.90;;;;;;5092999;28;20016;-76
2021/10/31 01:58:52;;;;;;;0.40;0.40;;;14.20;71.90;;;;;;5075041;28;20035;-76
2021/10/31 02:01:19;;;;;;;1.15;0.50;;;14.20;71.10;;;;;;5093108;28;20120;-76
2021/10/31 02:03:48;;;;;;;0.20;0.20;;;14.30;70.30;;;;;;5093108;28;20053;-77
2021/10/31 02:06:15;;;;;;;0.40;0.40;;;14.50;71.10;;;;;;5092717;28;20528;-76
2021/10/31 02:08:44;;;;;;;2.50;0.47;;;14.60;70.20;;;;;;5094978;28;20032;-75
2021/10/31 02:11:11;;;;;;;0.40;0.40;;;14.70;70.00;;;;;;5096770;28;20119;-77
2021/10/31 02:13:40;;;;;;;0.50;0.50;;;14.80;70.40;;;;;;5093136;28;20024;-77
2021/10/31 02:16:06;;;;;;;0.40;0.28;;;14.80;69.80;;;;;;5093016;28;20020;-76
2021/10/31 02:18:33;;;;;;;0.38;0.30;;;14.90;69.00;;;;;;5092976;28;20361;-78
2021/10/31 02:21:00;;;;;;;1.50;0.40;;;14.90;69.10;;;;;;5093166;28;20032;-76
2021/10/31 02:23:26;;;;;;;0.95;0.43;;;14.90;69.00;;;;;;5092828;28;20020;-73
2021/10/31 02:25:52;;;;;;;0.52;0.40;;;15.00;68.90;;;;;;5092882;28;20027;-76
2021/10/31 02:28:18;;;;;;;0.40;0.32;;;14.90;68.40;;;;;;5092773;28;20058;-75
2021/10/31 02:30:44;;;;;;;0.80;0.40;;;14.90;67.30;;;;;;5093098;28;20020;-77
2021/10/31 02:33:10;;;;;;;0.40;0.38;;;14.90;66.80;;;;;;5074640;28;20484;-76
2021/10/31 02:35:36;;;;;;;1.55;0.45;;;14.80;66.80;;;;;;5093411;28;20024;-77
2021/10/31 02:38:02;;;;;;;0.77;0.32;;;14.80;67.60;;;;;;5096674;28;20055;-76
2021/10/31 02:40:28;;;;;;;0.40;0.30;;;14.80;68.30;;;;;;5096621;28;20084;-76
2021/10/31 02:42:53;;;;;;;0.60;0.30;;;14.80;69.60;;;;;;5096680;28;20044;-76
2021/10/31 02:45:19;;;;;;;0.55;0.20;;;14.80;70.00;;;;;;5096560;28;20427;-76
2021/10/31 02:48:03;;;;;;;0.40;0.40;;;14.80;70.30;;;;;;5096631;28;20024;-74
2021/10/31 02:50:32;;;;;;;0.30;0.30;;;14.70;70.60;;;;;;5096509;28;20027;-76
2021/10/31 02:53:10;;;;;;;0.30;0.28;;;14.70;70.90;;;;;;5096325;28;20042;-77
2021/10/31 02:55:49;;;;;;;1.33;0.30;;;14.70;71.00;;;;;;5096478;28;20021;-77
2021/10/31 02:58:23;;;;;;;0.88;0.35;;;14.60;71.30;;;;;;5096246;28;20028;-76
2021/10/31 03:00:56;;;;;;;0.20;0.20;;;14.50;71.70;;;;;;5096231;28;20038;-76
2021/10/31 03:03:22;;;;;;;0.68;0.30;;;14.50;72.00;;;;;;5096133;28;20024;-77
2021/10/31 03:05:53;;;;;;;0.28;0.20;;;14.50;72.00;;;;;;5096161;28;20046;-76
2021/10/31 03:08:22;;;;;;;1.85;0.50;;;14.50;71.90;;;;;;5095831;28;20147;-73
2021/10/31 03:11:02;;;;;;;0.77;0.52;;;14.50;71.80;;;;;;5096024;28;20078;-73
2021/10/31 03:13:28;;;;;;;1.05;0.35;;;14.40;71.90;;;;;;5096017;28;20020;-72
2021/10/31 03:15:54;;;;;;;0.30;0.30;;;14.40;72.10;;;;;;5095893;28;20435;-77
2021/10/31 03:18:20;;;;;;;1.67;0.47;;;14.30;72.10;;;;;;5095757;28;20534;-76
2021/10/31 03:20:46;;;;;;;0.88;0.50;;;14.30;72.20;;;;;;5095769;28;20099;-76
2021/10/31 03:23:12;;;;;;;0.75;0.47;;;14.20;72.30;;;;;;5095652;28;20111;-75
2021/10/31 03:25:38;;;;;;;0.50;0.40;;;14.10;72.40;;;;;;5095724;28;20099;-76
2021/10/31 03:28:04;;;;;;;0.45;0.35;;;14.10;72.60;;;;;;5095522;28;20036;-75
2021/10/31 03:30:30;;;;;;;0.85;0.50;;;14.00;72.70;;;;;;5095659;28;20028;-75
2021/10/31 03:32:56;;;;;;;0.47;0.40;;;13.90;73.00;;;;;;5095511;28;20150;-76
2021/10/31 03:35:21;;;;;;;0.47;0.43;;;13.90;73.20;;;;;;5077249;28;20118;-76
2021/10/31 03:37:47;;;;;;;1.58;0.50;;;13.80;73.40;;;;;;5095407;28;20024;-75
2021/10/31 03:40:13;;;;;;;1.20;0.50;;;13.70;73.60;;;;;;5095182;28;20492;-75
2021/10/31 03:42:39;;;;;;;2.88;0.68;;;13.60;73.90;;;;;;5095387;28;20031;-75
2021/10/31 03:45:06;;;;;;;0.40;0.35;;;13.50;74.10;;;;;;5095228;28;20465;-73
2021/10/31 03:47:34;;;;;;;0.68;0.50;;;13.50;74.40;;;;;;5076097;28;20021;-74
2021/10/31 03:50:00;;;;;;;2.00;1.00;;;13.50;74.50;;;;;;5095237;28;20020;-73
2021/10/31 03:52:26;;;;;;;1.40;0.50;;;13.50;74.80;;;;;;5095146;28;20031;-76
2021/10/31 03:54:51;;;;;;;2.17;0.50;;;13.40;74.80;;;;;;5095154;28;20439;-75
2021/10/31 03:57:17;;;;;;;0.57;0.50;;;13.40;75.00;;;;;;5094970;28;20563;-76
2021/10/31 03:59:43;;;;;;;3.15;0.60;;;13.30;75.20;;;;;;5095042;28;20046;-75
2021/10/31 04:02:09;;;;;;;0.50;0.50;;;13.30;75.40;;;;;;5094840;28;20485;-76
2021/10/31 04:04:34;;;;;;;1.65;0.73;;;13.30;75.40;;;;;;5094893;28;20023;-76
2021/10/31 04:07:00;;;;;;;0.57;0.50;;;13.30;75.50;;;;;;5094813;28;20028;-76
2021/10/31 04:09:26;;;;;;;1.98;1.42;;;13.30;75.60;;;;;;5094905;28;20393;-76
2021/10/31 04:11:52;;;;;;;2.75;1.75;;;13.20;75.50;;;;;;5076620;28;20035;-76
2021/10/31 04:14:17;;;;;;;2.28;1.40;;;13.20;75.70;;;;;;5094649;28;20131;-75
2021/10/31 04:16:43;;;;;;;1.48;0.50;;;13.20;75.90;;;;;;5094787;28;20431;-75
2021/10/31 04:19:08;;;;;;;0.65;0.50;;;13.20;76.10;;;;;;5094681;28;20524;-75
2021/10/31 04:21:34;;;;;;;2.88;2.08;;;13.10;76.10;;;;;;5094595;28;20368;-75
2021/10/31 04:23:59;;;;;;;2.08;1.30;;;13.10;76.00;;;;;;5094510;28;20028;-76
2021/10/31 04:26:25;;;;;;;1.38;0.93;;;13.10;76.10;;;;;;5094517;28;20136;-76
2021/10/31 04:28:50;;;;;;;0.93;0.50;;;13.10;76.00;;;;;;5076100;28;20039;-75
2021/10/31 04:31:16;;;;;;;0.30;0.30;;;13.10;76.00;;;;;;5094325;28;20020;-75
2021/10/31 04:33:42;;;;;;;1.92;0.52;;;13.00;76.00;;;;;;5094350;28;20031;-75
2021/10/31 04:36:07;;;;;;;0.30;0.30;;;13.00;76.10;;;;;;5094392;28;20094;-74
2021/10/31 04:38:33;;;;;;;1.80;0.50;;;13.00;76.10;;;;;;5094264;28;20020;-74
2021/10/31 04:41:00;;;;;;;0.43;0.43;;;13.00;76.20;;;;;;5076193;28;20408;-75
2021/10/31 04:43:26;;;;;;;0.50;0.50;;;13.00;76.10;;;;;;5094319;28;20028;-75
2021/10/31 04:45:53;;;;;;;1.52;0.82;;;12.90;76.10;;;;;;5094220;28;20095;-75
2021/10/31 04:48:21;;;;;;;1.48;0.95;;;12.90;76.20;;;;;;5093982;28;20036;-76
2021/10/31 04:50:47;;;;;;;0.60;0.57;;;12.90;76.30;;;;;;5094258;28;20099;-75
2021/10/31 04:53:13;;;;;;;1.20;0.70;;;12.90;76.40;;;;;;5094020;28;20107;-74
2021/10/31 04:55:40;;;;;;;0.93;0.70;;;12.90;76.50;;;;;;5094196;28;20028;-76
2021/10/31 04:58:05;;;;;;;1.77;1.05;;;12.80;76.50;;;;;;5093877;28;20046;-76
2021/10/31 05:00:31;;;;;;;1.02;0.80;;;12.80;76.60;;;;;;5093899;28;20059;-76
2021/10/31 05:02:57;;;;;;;1.00;0.70;;;12.80;76.90;;;;;;5093852;28;20031;-77
2021/10/31 05:05:23;;;;;;;2.05;0.63;;;12.80;77.00;;;;;;5093767;28;20020;-75
2021/10/31 05:07:51;;;;;;;1.02;0.55;;;12.80;77.40;;;;;;5093759;28;20054;-75
2021/10/31 05:10:17;;;;;;;0.50;0.50;;;12.80;77.60;;;;;;5093651;28;20020;-76
2021/10/31 05:12:43;;;;;;;0.75;0.50;;;12.80;78.00;;;;;;5093692;28;20024;-75
2021/10/31 05:15:09;;;;;;;0.90;0.50;;;12.80;78.30;;;;;;5093656;28;20060;-77
2021/10/31 05:17:35;;;;;;;0.40;0.40;;;12.70;79.00;;;;;;5093802;28;20056;-77
2021/10/31 05:20:01;;;;;;;0.63;0.50;;;12.80;78.90;;;;;;5093635;28;20024;-76
2021/10/31 05:22:26;;;;;;;1.65;0.88;;;12.80;78.90;;;;;;5093686;28;20032;-76
2021/10/31 05:24:52;;;;;;;1.27;1.10;;;12.80;78.30;;;;;;5075533;28;20057;-76
2021/10/31 05:27:18;;;;;;;1.10;0.80;;;12.80;78.30;;;;;;5094425;28;20028;-76
2021/10/31 05:29:43;;;;;;;0.88;0.70;;;12.80;78.40;;;;;;5093633;28;20170;-76
2021/10/31 05:32:09;;;;;;;1.45;0.88;;;12.80;78.90;;;;;;5110725;28;20008;-77
2021/10/31 05:34:34;;;;;;;3.85;1.67;;;12.70;79.10;;;;;;5118944;28;20016;-76
2021/10/31 05:37:00;;;;;;;1.58;1.00;;;12.70;79.00;;;;;;5117270;28;20005;-75
2021/10/31 05:39:25;;;;;;;3.13;1.40;;;12.70;79.00;;;;;;5093276;28;20063;-75
2021/10/31 05:41:51;;;;;;;2.13;1.38;;;12.60;79.10;;;;;;5093226;28;20126;-74
2021/10/31 05:44:17;;;;;;;2.35;1.40;;;12.60;79.40;;;;;;5093111;28;20103;-75
2021/10/31 05:46:42;;;;;;;3.83;1.75;;;12.60;79.60;;;;;;5075178;28;20497;-75
2021/10/31 05:49:08;;;;;;;1.15;1.00;;;12.50;79.80;;;;;;5092472;28;20373;-74
2021/10/31 05:51:34;;;;;;;1.42;1.08;;;12.50;80.10;;;;;;5093126;28;20439;-75
2021/10/31 05:54:00;;;;;;;1.42;1.10;;;12.50;80.60;;;;;;5092939;28;20063;-75
2021/10/31 05:56:26;;;;;;;1.73;0.90;;;12.50;81.30;;;;;;5092870;28;20630;-75
2021/10/31 05:58:52;;;;;;;0.63;0.60;;;12.60;81.30;;;;;;5093087;28;20033;-75
2021/10/31 06:01:17;;;;;;;1.48;0.90;;;12.60;81.80;;;;;;5093262;28;20024;-75
2021/10/31 06:03:43;;;;;;;1.13;0.80;;;12.60;81.50;;;;;;5092877;28;20024;-75
2021/10/31 06:06:08;;;;;;;1.67;0.70;;;12.60;81.70;;;;;;5092819;28;20036;-75
2021/10/31 06:08:34;;;;;;;0.90;0.80;;;12.60;81.50;;;;;;5092899;28;20039;-75
2021/10/31 06:11:00;;;;;;;0.93;0.45;;;12.60;81.40;;;;;;5075749;28;20016;-76
2021/10/31 06:13:25;;;;;;;1.38;0.65;;;12.60;81.30;;;;;;5097071;28;20085;-76
2021/10/31 06:15:51;;;;;;;1.75;1.10;;;12.60;81.30;;;;;;5097222;28;20017;-75
2021/10/31 06:18:18;;;;;;;1.35;0.75;;;12.60;81.20;;;;;;5097342;28;20028;-76
2021/10/31 06:20:45;;;;;;;1.17;0.93;;;12.60;81.00;;;;;;5097279;28;20016;-76
2021/10/31 06:23:11;;;;;;;2.28;1.00;;;12.50;81.00;;;;;;5097046;28;20028;-76
2021/10/31 06:25:36;;;;;;;1.48;1.15;;;12.50;80.90;;;;;;5097257;28;20024;-76
2021/10/31 06:28:02;;;;;;;1.40;1.08;;;12.40;80.40;;;;;;5097042;28;20020;-75
2021/10/31 06:30:27;;;;;;;2.42;1.30;;;12.40;80.00;;;;;;5096821;28;20039;-76
2021/10/31 06:32:53;;;;;;;2.47;1.15;;;12.40;79.70;;;;;;5096541;28;20024;-75
2021/10/31 06:35:18;;;;;;;3.63;1.80;;;12.30;79.90;;;;;;5096742;28;20038;-76
2021/10/31 06:37:44;;;;;;;3.55;2.28;;;12.30;80.30;;;;;;5096714;28;20095;-76
2021/10/31 06:40:11;;;;;;;4.35;3.15;;;12.30;80.30;;;;;;5096346;28;20048;-75
2021/10/31 06:42:37;;;;;;;5.45;3.10;;;12.30;80.30;;;;;;5096650;28;20556;-75
2021/10/31 06:45:03;;;;;;;3.40;2.45;;;12.30;80.40;;;;;;5096388;28;20038;-73
2021/10/31 06:47:29;;;;;;;6.15;2.80;;;12.30;80.40;;;;;;5096374;28;20020;-74
2021/10/31 06:49:55;;;;;;;3.75;2.53;;;12.40;80.50;;;;;;5096327;28;20035;-73
2021/10/31 06:52:22;;;;;;;3.40;2.63;;;12.40;80.40;;;;;;5096227;28;20023;-73
2021/10/31 06:54:48;;;;;;;3.60;2.50;;;12.40;80.10;;;;;;5096404;28;20096;-73
2021/10/31 06:57:13;;;;;;;2.45;1.90;;;12.40;79.80;;;;;;5096097;28;20535;-73
2021/10/31 06:59:39;;;;;;;2.40;1.67;;;12.40;80.00;;;;;;5096286;28;20103;-74
2021/10/31 07:02:05;;;;;;;1.60;0.90;;;12.40;79.90;;;;;;5096058;28;20476;-75
2021/10/31 07:04:31;;;;;;;2.15;1.02;;;12.40;79.50;;;;;;5096238;28;20150;-75
2021/10/31 07:06:56;;;;;;;1.15;0.98;;;12.50;79.30;;;;;;5096088;28;20077;-75
2021/10/31 07:09:22;;;;;;;3.13;1.20;;;12.50;79.10;;;;;;5095850;28;20107;-76
2021/10/31 07:11:48;;;;;;;3.20;1.48;;;12.60;78.90;;;;;;5096033;28;20027;-74
2021/10/31 07:14:13;;;;;;;2.75;1.42;;;12.60;78.70;;;;;;5077505;28;20026;-74
2021/10/31 07:16:39;;;;;;;1.88;1.38;;;12.70;78.60;;;;;;5096125;28;20031;-74
2021/10/31 07:19:05;;;;;;;2.17;1.67;;;12.60;78.80;;;;;;5095889;28;20361;-74
2021/10/31 07:21:31;;;;;;;2.28;1.50;;;12.70;79.00;;;;;;5095606;28;20039;-75
2021/10/31 07:23:57;;;;;;;1.70;1.60;;;12.70;79.00;;;;;;5094736;28;20232;-74
2021/10/31 07:26:23;;;;;;;3.00;1.75;;;12.80;78.80;;;;;;5095777;28;20107;-75
2021/10/31 07:28:48;;;;;;;2.22;1.70;;;12.90;78.50;;;;;;5095900;28;20040;-76
2021/10/31 07:31:15;;;;;;;3.13;2.13;;;13.00;78.10;;;;;;5077498;28;20536;-75
2021/10/31 07:33:41;;;;;;;2.15;1.95;;;13.10;77.80;;;;;;5095624;28;20070;-76
2021/10/31 07:36:07;;;;;;;3.75;2.17;;;13.20;77.40;;;;;;5095241;28;20485;-75
2021/10/31 07:38:34;;;;;;;4.07;2.90;;;13.20;77.40;;;;;;5095292;28;20047;-74
2021/10/31 07:41:00;;;;;;;3.20;2.10;;;13.20;77.40;;;;;;5095424;28;20053;-77
2021/10/31 07:43:25;;;;;;;1.98;1.52;;;13.20;77.20;;;;;;5095353;28;20093;-78
2021/10/31 07:45:51;;;;;;;1.80;1.30;;;13.20;76.40;;;;;;5095414;28;20555;-78
2021/10/31 07:48:16;;;;;;;2.22;1.65;;;13.20;76.20;;;;;;5095168;28;20388;-74
2021/10/31 07:50:42;;;;;;;3.03;1.42;;;13.20;76.00;;;;;;5095418;28;20115;-78
2021/10/31 07:53:10;;;;;;;3.47;1.50;;;13.40;75.90;;;;;;5095482;28;20099;-77
2021/10/31 07:55:38;;;;;;;2.72;1.65;;;13.60;75.60;;;;;;5095377;28;20027;-75
2021/10/31 07:58:05;;;;;;;4.03;1.77;;;13.70;75.00;;;;;;5095074;28;20107;-74
2021/10/31 08:00:32;;;;;;;2.15;1.50;;;13.90;74.50;;;;;;5095126;28;20353;-73
2021/10/31 08:02:58;;;;;;;3.53;2.00;;;14.00;74.00;;;;;;5095323;28;20023;-75
2021/10/31 08:05:25;;;;;;;1.65;1.40;;;14.20;73.00;;;;;;5096582;28;20024;-73
2021/10/31 08:07:53;;;;;;;1.95;1.50;;;14.30;72.60;;;;;;5095048;28;20016;-77
2021/10/31 08:10:19;;;;;;;6.25;1.40;;;14.60;71.90;;;;;;5083253;28;20119;-85
2021/10/31 08:12:45;;;;;;;7.57;1.25;;;14.60;71.30;;;;;;5098868;28;20442;-91
2021/10/31 08:15:11;;;;;;;1.80;0.90;;;14.90;70.10;;;;;;5098065;28;20038;-86
2021/10/31 08:17:37;;;;;;;1.65;0.88;;;15.10;69.00;;;;;;5096787;28;20495;-87
2021/10/31 08:20:03;;;;;;;2.00;1.25;;;15.30;68.00;;;;;;5096841;28;20016;-86
2021/10/31 08:22:29;;;;;;;2.30;1.30;;;15.50;67.90;;;;;;5096698;28;20538;-86
2021/10/31 08:24:54;;;;;;;3.67;1.40;;;15.60;67.70;;;;;;5095666;28;20054;-87
2021/10/31 08:27:20;;;;;;;1.40;1.30;;;15.80;66.80;;;;;;5095628;28;20074;-87
2021/10/31 08:29:47;;;;;;;2.50;2.00;;;16.00;66.20;;;;;;5095444;28;20028;-85
2021/10/31 08:32:13;;;;;;;2.63;2.05;;;16.20;65.60;;;;;;5077055;28;20020;-87
2021/10/31 08:34:39;;;;;;;2.60;1.85;;;16.30;64.60;;;;;;5094681;28;20477;-87
2021/10/31 08:37:05;;;;;;;6.40;2.53;;;16.60;64.20;;;;;;5096551;28;20058;-89
2021/10/31 08:39:30;;;;;;;2.42;1.70;;;16.80;63.30;;;;;;5095233;28;20060;-87
2021/10/31 08:41:56;;;;;;;2.90;1.92;;;16.90;62.90;;;;;;5095580;28;20103;-86
2021/10/31 08:44:23;;;;;;;4.00;2.58;;;16.90;62.70;;;;;;5095133;28;20027;-88
2021/10/31 08:46:48;;;;;;;5.70;2.50;;;17.00;62.60;;;;;;5095193;28;20024;-88
2021/10/31 08:49:15;;;;;;;3.15;2.10;;;17.00;62.10;;;;;;5077018;28;20078;-88
2021/10/31 08:51:41;;;;;;;3.05;1.83;;;17.10;61.40;;;;;;5094879;28;20051;-88
2021/10/31 08:54:07;;;;;;;3.33;2.20;;;17.00;62.20;;;;;;5094801;28;20035;-88
2021/10/31 08:56:33;;;;;;;3.10;2.00;;;17.10;61.80;;;;;;5095062;28;20024;-87
2021/10/31 08:58:59;;;;;;;3.42;2.00;;;17.30;61.20;;;;;;5094475;28;20032;-81
2021/10/31 09:01:27;;;;;;;3.85;2.17;;;17.50;60.50;;;;;;5093945;28;20098;-79
2021/10/31 09:03:53;;;;;;;3.45;2.03;;;17.80;59.80;;;;;;5094171;28;20024;-83
2021/10/31 09:06:20;;;;;;;4.45;2.25;;;18.10;59.00;;;;;;5093832;28;20082;-83
2021/10/31 09:08:46;;;;;;;4.50;2.15;;;18.30;58.00;;;;;;5093789;28;20047;-75
2021/10/31 09:11:12;;;;;;;1.50;1.40;;;18.50;56.80;;;;;;5093541;28;20016;-75
2021/10/31 09:13:38;;;;;;;2.03;1.25;;;18.50;54.70;;;;;;5093622;28;20028;-75
2021/10/31 09:16:04;;;;;;;3.10;1.63;;;18.60;54.40;;;;;;5093427;28;20024;-75
2021/10/31 09:18:31;;;;;;;1.70;1.55;;;18.80;53.90;;;;;;5093131;28;20016;-75
2021/10/31 09:20:57;;;;;;;2.25;1.40;;;18.60;51.70;;;;;;5093265;28;20473;-75
2021/10/31 09:23:24;;;;;;;1.02;0.93;;;18.60;51.10;;;;;;5093199;28;20177;-75
2021/10/31 09:25:50;;;;;;;1.25;0.60;;;18.70;50.40;;;;;;5093989;28;20024;-76
2021/10/31 09:28:16;;;;;;;1.75;0.65;;;18.90;46.50;;;;;;5093328;28;20032;-75
2021/10/31 09:30:42;;;;;;;0.50;0.50;;;19.10;44.90;;;;;;5093266;28;20028;-74
2021/10/31 09:33:11;;;;;;;2.78;0.70;;;19.30;44.00;;;;;;5093065;28;20073;-76
2021/10/31 09:35:43;;;;;;;0.98;0.77;;;19.50;43.20;;;;;;5093313;28;20054;-75
2021/10/31 09:38:10;;;;;;;0.57;0.50;;;19.60;42.20;;;;;;5093334;28;20028;-75
2021/10/31 09:40:37;;;;;;;1.80;0.80;;;19.80;42.10;;;;;;5092995;28;20044;-75
2021/10/31 09:43:04;;;;;;;1.95;0.45;;;19.90;42.30;;;;;;5075124;28;20035;-76
2021/10/31 09:45:32;;;;;;;2.33;0.60;;;19.80;41.50;;;;;;5096141;28;20021;-74
2021/10/31 09:48:02;;;;;;;1.15;0.65;;;19.90;41.40;;;;;;5100036;28;20054;-75
2021/10/31 09:50:31;;;;;;;0.55;0.55;;;19.80;41.00;;;;;;5093283;28;20028;-75
2021/10/31 09:52:57;;;;;;;0.88;0.40;;;19.90;41.20;;;;;;5093238;28;20023;-75
2021/10/31 09:55:23;;;;;;;1.25;0.70;;;20.00;40.90;;;;;;5093197;28;20024;-75
2021/10/31 09:57:49;;;;;;;1.33;0.80;;;20.10;41.00;;;;;;5093252;28;20020;-74
2021/10/31 10:00:21;;;;;;;1.52;0.75;;;20.30;40.90;;;;;;5092919;28;20115;-75
2021/10/31 10:05:27;;;;;;;0.65;0.65;;;20.20;40.50;;;;;;5092949;28;20055;-75
2021/10/31 10:08:13;;;;;;;0.50;0.50;;;20.00;40.10;;;;;;5093046;28;20016;-74
2021/10/31 10:10:53;;;;;;;1.08;0.68;;;20.00;39.90;;;;;;5092964;28;20108;-74
2021/10/31 10:13:26;;;;;;;0.65;0.60;;;20.00;39.80;;;;;;5092918;28;20017;-75
2021/10/31 10:16:11;;;;;;;3.08;0.77;;;20.00;39.50;;;;;;5092897;28;20024;-74
2021/10/31 10:18:38;;;;;;;3.75;1.30;;;20.00;39.90;;;;;;5092946;28;20031;-75
2021/10/31 10:21:18;;;;;;;1.00;0.75;;;20.00;39.80;;;;;;5092862;28;20032;-74
2021/10/31 10:23:55;;;;;;;1.63;0.75;;;19.90;40.40;;;;;;5092934;28;20028;-76
2021/10/31 10:26:28;;;;;;;0.60;0.60;;;19.80;39.00;;;;;;5092921;28;20903;-75
2021/10/31 10:29:00;;;;;;;0.85;0.60;;;19.90;39.40;;;;;;5092793;28;20112;-74
2021/10/31 10:31:26;;;;;;;1.35;0.77;;;19.90;39.60;;;;;;5092766;28;20042;-75
2021/10/31 10:33:52;;;;;;;1.20;0.60;;;19.80;39.20;;;;;;5092834;28;20436;-74
2021/10/31 10:36:19;;;;;;;0.95;0.63;;;19.90;38.80;;;;;;5092848;28;20492;-74
2021/10/31 10:39:08;;;;;;;2.08;0.80;;;19.80;38.80;;;;;;5092663;28;20035;-75
2021/10/31 10:41:37;;;;;;;1.10;0.70;;;20.10;38.90;;;;;;5092770;28;20023;-74
2021/10/31 10:44:23;;;;;;;1.85;0.70;;;20.20;38.40;;;;;;5092589;28;20468;-75
2021/10/31 10:47:20;;;;;;;1.00;0.52;;;20.30;38.30;;;;;;5092847;28;20030;-76
2021/10/31 10:49:48;;;;;;;2.13;0.70;;;20.40;38.10;;;;;;5084290;28;20492;-76
2021/10/31 10:52:23;;;;;;;3.15;0.63;;;20.70;37.50;;;;;;5092610;28;20419;-76
2021/10/31 10:55:09;;;;;;;2.00;0.75;;;20.90;37.20;;;;;;5092657;28;20073;-76
2021/10/31 10:57:37;;;;;;;1.00;0.73;;;21.10;36.60;;;;;;5094566;28;20492;-76
2021/10/31 11:00:11;;;;;;;0.90;0.60;;;21.20;35.90;;;;;;5096187;28;20020;-76
2021/10/31 11:02:37;;;;;;;1.20;0.50;;;21.20;35.60;;;;;;5096142;28;20040;-76
2021/10/31 11:05:09;;;;;;;1.52;0.68;;;21.30;34.90;;;;;;5096128;28;20028;-76
2021/10/31 11:07:40;;;;;;;0.80;0.80;;;21.30;35.00;;;;;;5095965;28;20028;-76
2021/10/31 11:10:16;;;;;;;0.80;0.50;;;21.50;35.20;;;;;;5096089;28;20032;-76
2021/10/31 11:12:43;;;;;;;1.55;0.40;;;21.70;34.70;;;;;;5096050;28;20024;-76
2021/10/31 11:15:15;;;;;;;0.77;0.32;;;21.80;33.90;;;;;;5096026;28;20023;-76
2021/10/31 11:17:42;;;;;;;1.42;0.30;;;22.00;33.70;;;;;;5096125;28;20023;-76
2021/10/31 11:20:11;;;;;;;0.50;0.50;;;22.10;32.70;;;;;;5095919;28;20020;-76
2021/10/31 11:22:39;;;;;;;0.40;0.40;;;22.10;32.50;;;;;;5096095;28;20062;-77
2021/10/31 11:25:07;;;;;;;0.40;0.28;;;22.30;32.20;;;;;;5095781;28;20073;-77
2021/10/31 11:27:33;;;;;;;0.55;0.38;;;22.30;32.10;;;;;;5096269;28;20020;-76
2021/10/31 11:29:59;;;;;;;1.08;0.57;;;22.50;32.20;;;;;;5095944;28;20668;-76
2021/10/31 11:32:27;;;;;;;1.00;0.40;;;22.70;32.20;;;;;;5096053;28;20545;-76
2021/10/31 11:34:56;;;;;;;0.65;0.60;;;22.90;32.00;;;;;;5095970;28;20392;-76
2021/10/31 11:37:28;;;;;;;0.40;0.40;;;23.10;31.10;;;;;;5095890;28;20024;-76
2021/10/31 11:40:00;;;;;;;1.27;0.52;;;23.20;31.00;;;;;;5095718;28;20382;-76
2021/10/31 11:42:34;;;;;;;0.95;0.50;;;23.40;30.50;;;;;;5095548;28;20032;-76
2021/10/31 11:45:05;;;;;;;0.60;0.40;;;23.30;30.10;;;;;;5095498;28;20032;-76
2021/10/31 11:47:31;;;;;;;1.85;0.40;;;23.50;28.70;;;;;;5095617;28;20024;-76
2021/10/31 11:50:03;;;;;;;1.33;0.40;;;23.40;28.50;;;;;;5095461;28;20100;-75
2021/10/31 11:52:58;;;;;;;0.80;0.50;;;23.60;28.50;;;;;;5095363;28;20020;-74
2021/10/31 11:55:28;;;;;;;0.20;0.20;;;23.80;28.20;;;;;;5095427;28;20024;-75
2021/10/31 11:57:58;;;;;;;0.77;0.40;;;24.10;26.80;;;;;;5095351;28;20016;-74
2021/10/31 12:00:25;;;;;;;0.30;0.30;;;24.30;26.50;;;;;;5076830;28;20174;-76
2021/10/31 12:03:02;;;;;;;0.30;0.30;;;24.50;26.20;;;;;;5095096;28;20028;-75
2021/10/31 12:05:39;;;;;;;0.65;0.35;;;24.60;25.70;;;;;;5077461;28;20016;-75
2021/10/31 12:08:07;;;;;;;0.40;0.40;;;24.80;25.60;;;;;;5094579;28;20097;-75
2021/10/31 12:10:35;;;;;;;1.35;0.43;;;25.00;25.20;;;;;;5094575;28;20057;-75
2021/10/31 12:13:11;;;;;;;0.30;0.30;;;25.30;25.40;;;;;;5095048;28;20353;-75
2021/10/31 12:15:37;;;;;;;0.65;0.50;;;25.50;23.20;;;;;;5094937;28;20020;-74
2021/10/31 12:18:07;;;;;;;0.40;0.40;;;25.60;22.80;;;;;;5094653;28;20034;-74
2021/10/31 12:20:53;;;;;;;0.38;0.38;;;25.80;22.80;;;;;;5094581;28;20423;-76
2021/10/31 12:23:22;;;;;;;0.60;0.60;;;26.00;22.60;;;;;;5076258;28;20035;-76
2021/10/31 12:25:48;;;;;;;0.75;0.40;;;26.00;22.10;;;;;;5094660;28;20057;-76
2021/10/31 12:28:36;;;;;;;0.80;0.70;;;26.30;21.70;;;;;;5094457;28;20028;-76
2021/10/31 12:31:25;;;;;;;0.98;0.80;;;26.60;21.40;;;;;;5094499;28;20020;-74
2021/10/31 12:34:16;;;;;;;0.50;0.50;;;27.00;21.00;;;;;;5076114;28;20031;-76
2021/10/31 12:37:20;;;;;;;0.88;0.50;;;27.40;19.70;;;;;;5076136;28;20471;-73
2021/10/31 12:39:48;;;;;;;0.65;0.47;;;27.30;19.40;;;;;;5076174;28;20067;-76
2021/10/31 12:42:16;;;;;;;2.58;0.70;;;27.50;19.30;;;;;;5076006;28;20020;-76
2021/10/31 12:44:45;;;;;;;0.30;0.30;;;27.90;19.10;;;;;;5076151;28;20024;-75
2021/10/31 12:47:14;;;;;;;1.15;0.38;;;28.40;18.80;;;;;;5076050;28;20032;-75
2021/10/31 12:49:40;;;;;;;0.47;0.47;;;28.80;17.70;;;;;;5094104;28;20020;-76
2021/10/31 12:52:20;;;;;;;2.55;0.70;;;29.40;17.70;;;;;;5093941;28;20071;-75
2021/10/31 12:54:55;;;;;;;0.80;0.80;;;29.70;16.60;;;;;;5075565;28;20070;-75
2021/10/31 12:57:21;;;;;;;1.00;0.47;;;30.10;16.40;;;;;;5094075;28;20016;-75
2021/10/31 12:59:50;;;;;;;0.75;0.40;;;30.40;15.70;;;;;;5075775;28;20032;-74